Archival Weather

Yakutsk

Yakutsk, Russia (UEEE)

Report from: Monday, February 6, 2023 6:00 AM JST
Current time: Monday, June 17, 2024 8:45 PM JST

Current weather – Weather history – Daily summaries
Weather forecast

Present weatherMist
Temperature-42.0°C (-43.6°F)
Dew point-45.0°C (-49.0°F)
Winds 1.9 kts (1 m/s, 2.2 mph) Northwest (320°)
Visibility4921.3 ft. (1.5 km)
Altimeter30.21 in.Hg (1023 mB)
Precip. events QF 8:38 AM
Relative humidity72 %
Density altitude-8,053 ft. (-2,455 m)
Remarks No significant changes expected in the next two hours
Flight conditions Low Instrument Meteorological Conditions
Raw dataUEEE 052100Z 32001MPS 1500 R23L/P2000N BR NSC M42/M45 Q1023 R23L/490150 NOSIG RMK QFE758
An error has occurred. This application may no longer respond until reloaded. Reload 🗙